Time;durP1;ratioP1;P1;durP2;ratioP2;P2;SDS_P1;SDS_P2;PMS_P1;PMS_P2;Temp;Humidity;BMP_temperature;BMP_pressure;BME280_temperature;BME280_humidity;BME280_pressure;Samples;Min_cycle;Max_cycle;Signal;HPM_P1;HPM_P2
2022/01/11 00:02:18;;;;;;;109.40;52.83;;;;;;;-1.35;77.88;103090.16;1666449;86;23174;-81
2022/01/11 00:04:45;;;;;;;105.50;50.35;;;;;;;-1.30;77.85;103095.47;1666544;86;21081;-81
2022/01/11 00:07:15;;;;;;;112.55;52.08;;;;;;;-1.27;77.81;103093.23;1672868;85;21079;-81
2022/01/11 00:09:43;;;;;;;110.70;51.92;;;;;;;-1.22;77.80;103095.92;1682194;85;21104;-81
2022/01/11 00:12:10;;;;;;;104.97;51.20;;;;;;;-1.18;77.76;103100.71;1676468;85;21119;-81
2022/01/11 00:14:37;;;;;;;107.67;53.00;;;;;;;-1.14;77.72;103106.75;1676608;85;21835;-80
2022/01/11 00:17:04;;;;;;;102.22;51.08;;;;;;;-1.08;77.73;103106.51;1688722;84;21168;-80
2022/01/11 00:19:33;;;;;;;105.83;50.10;;;;;;;-1.06;77.62;103103.71;1725742;83;21126;-80
2022/01/11 00:22:05;;;;;;;102.42;50.08;;;;;;;-1.04;77.63;103099.23;1706843;83;21600;-80
2022/01/11 00:24:35;;;;;;;101.33;49.80;;;;;;;-1.01;77.57;103103.47;1710494;83;21094;-81
2022/01/11 00:27:07;;;;;;;93.92;48.02;;;;;;;-0.98;77.54;103104.16;1723814;83;21764;-80
2022/01/11 00:29:39;;;;;;;;;;;;;;;-0.95;77.50;103104.51;1656796;84;21685;-80
2022/01/11 00:32:11;;;;;;;98.10;45.38;;;;;;;-0.91;77.49;103101.89;1705807;84;20208;-81
2022/01/11 00:34:48;;;;;;;105.07;49.18;;;;;;;-0.90;77.45;103098.18;1705789;84;21118;-83
2022/01/11 00:37:10;;;;;;;93.60;45.43;;;;;;;-0.87;77.45;103105.34;1722255;82;21047;-81
2022/01/11 00:39:38;;;;;;;96.45;46.02;;;;;;;-0.85;77.39;103101.25;1723347;83;21036;-81
2022/01/11 00:42:10;;;;;;;103.25;47.33;;;;;;;-0.82;77.40;103097.72;1705806;84;21067;-82
2022/01/11 00:44:34;;;;;;;88.52;45.40;;;;;;;-0.81;77.38;103101.77;1704815;84;21138;-82
2022/01/11 00:47:01;;;;;;;89.62;45.65;;;;;;;-0.79;77.37;103100.27;1723885;82;21397;-82
2022/01/11 00:49:35;;;;;;;89.00;42.65;;;;;;;-0.75;77.34;103107.04;1705672;84;21090;-81
2022/01/11 00:51:59;;;;;;;87.27;42.85;;;;;;;-0.73;77.32;103107.77;1722709;82;22608;-80
2022/01/11 00:54:30;;;;;;;90.32;44.30;;;;;;;-0.72;77.25;103105.70;1722949;82;21522;-80
2022/01/11 00:56:56;;;;;;;84.25;42.65;;;;;;;-0.68;77.26;103107.86;1723288;82;21078;-81
2022/01/11 00:59:23;;;;;;;88.03;42.50;;;;;;;-0.65;77.23;103113.77;1705777;84;21102;-81
2022/01/11 01:04:40;;;;;;;89.37;45.12;;;;;;;-0.58;77.11;103109.80;1886372;76;22409;-81
2022/01/11 01:07:07;;;;;;;87.20;41.00;;;;;;;-0.61;77.18;103109.08;1857718;77;21046;-81
2022/01/11 01:09:54;;;;;;;85.15;42.75;;;;;;;-0.55;77.15;103118.25;1857959;77;21749;-81
2022/01/11 01:12:09;;;;;;;84.50;43.55;;;;;;;-0.52;77.08;103126.36;1852666;77;21039;-81
2022/01/11 01:14:38;;;;;;;86.82;42.55;;;;;;;-0.50;77.01;103119.67;1857138;77;21049;-81
2022/01/11 01:17:08;;;;;;;87.88;41.92;;;;;;;-0.49;76.95;103121.14;1857596;77;21112;-81
2022/01/11 01:19:40;;;;;;;76.65;40.52;;;;;;;-0.49;76.89;103115.97;1857538;77;21053;-80
2022/01/11 01:22:10;;;;;;;77.00;40.50;;;;;;;-0.48;76.95;103119.08;1857454;77;21839;-80
2022/01/11 01:24:35;;;;;;;80.85;40.78;;;;;;;-0.46;76.90;103120.54;1856415;77;21062;-80
2022/01/11 01:27:02;;;;;;;81.85;41.83;;;;;;;-0.43;76.90;103118.30;1857741;77;21087;-81
2022/01/11 01:29:31;;;;;;;83.15;40.63;;;;;;;-0.42;76.87;103121.41;1857707;77;21042;-81
2022/01/11 01:31:59;;;;;;;84.52;41.00;;;;;;;-0.40;76.90;103118.60;1857580;77;21045;-81
2022/01/11 01:34:26;;;;;;;89.95;43.20;;;;;;;-0.36;76.86;103120.76;1857471;77;21777;-81
2022/01/11 01:36:52;;;;;;;80.60;40.70;;;;;;;-0.37;76.75;103122.83;1857551;77;21062;-81
2022/01/11 01:39:19;;;;;;;79.15;40.40;;;;;;;-0.43;76.81;103110.15;1857594;77;21549;-81
2022/01/11 01:41:47;;;;;;;77.35;39.30;;;;;;;-0.35;76.75;103131.67;1857671;77;21049;-81
2022/01/11 01:44:14;;;;;;;72.78;38.80;;;;;;;-0.34;76.85;103125.72;1857522;77;21705;-81
2022/01/11 01:46:41;;;;;;;73.05;35.58;;;;;;;-0.32;76.81;103122.01;1857486;77;21823;-81
2022/01/11 01:49:17;;;;;;;66.17;35.50;;;;;;;-0.27;76.84;103132.48;1857120;77;21295;-81
2022/01/11 01:51:39;;;;;;;75.28;36.42;;;;;;;-0.21;76.87;103134.42;1855266;77;21085;-81
2022/01/11 01:54:06;;;;;;;63.25;36.53;;;;;;;-0.18;76.83;103132.17;1857655;77;21081;-81
2022/01/11 01:56:33;;;;;;;69.58;35.52;;;;;;;-0.15;76.73;103135.45;1824634;77;21069;-81
2022/01/11 01:59:00;;;;;;;67.55;35.98;;;;;;;-0.13;76.78;103130.06;1857457;77;22415;-81
2022/01/11 02:01:28;;;;;;;64.77;33.98;;;;;;;-0.08;76.76;103132.38;1856600;77;21546;-80
2022/01/11 02:03:57;;;;;;;69.82;34.43;;;;;;;-0.04;76.74;103133.27;1849482;77;21034;-80
2022/01/11 02:06:23;;;;;;;67.62;35.43;;;;;;;-0.02;76.62;103130.81;1841322;76;21288;-81
2022/01/11 02:08:54;;;;;;;73.07;36.28;;;;;;;0.00;76.65;103133.22;1843993;77;21041;-81
2022/01/11 02:11:22;;;;;;;57.83;32.25;;;;;;;0.04;76.60;103133.14;1843308;77;21877;-82
2022/01/11 02:13:50;;;;;;;61.23;32.95;;;;;;;0.07;76.58;103130.88;1814631;77;21038;-82
2022/01/11 02:16:21;;;;;;;62.83;33.35;;;;;;;0.09;76.56;103128.08;1843610;77;21038;-81
2022/01/11 02:18:50;;;;;;;60.58;32.20;;;;;;;0.11;76.50;103131.73;1843108;77;21030;-82
2022/01/11 02:21:17;;;;;;;58.17;32.30;;;;;;;0.12;76.47;103135.80;1843718;77;21061;-81
2022/01/11 02:23:50;;;;;;;67.32;35.25;;;;;;;0.13;76.44;103135.41;1842478;77;21030;-81
2022/01/11 02:26:17;;;;;;;58.80;32.63;;;;;;;0.14;76.43;103135.96;1843648;77;21047;-82
2022/01/11 02:28:47;;;;;;;59.80;33.63;;;;;;;0.17;76.48;103132.02;1843607;77;21064;-82
2022/01/11 02:31:12;;;;;;;61.30;31.80;;;;;;;0.21;76.48;103131.03;1842793;77;20985;-82
2022/01/11 02:33:47;;;;;;;60.83;33.33;;;;;;;0.22;76.44;103134.17;1843590;77;21084;-81
2022/01/11 02:36:25;;;;;;;54.27;31.50;;;;;;;0.23;76.37;103139.91;1842784;77;21800;-82
2022/01/11 02:38:52;;;;;;;62.25;32.63;;;;;;;0.23;76.42;103138.61;1842532;77;21782;-81
2022/01/11 02:41:20;;;;;;;64.15;31.65;;;;;;;0.25;76.46;103139.69;1843612;77;21101;-81
2022/01/11 02:43:47;;;;;;;60.90;30.60;;;;;;;0.28;76.48;103141.28;1843447;77;21105;-80
2022/01/11 02:46:16;;;;;;;60.78;29.48;;;;;;;0.30;76.43;103146.24;1843397;77;21053;-80
2022/01/11 02:48:46;;;;;;;63.65;33.05;;;;;;;0.31;76.42;103140.32;1843451;77;21763;-80
2022/01/11 02:51:16;;;;;;;61.35;31.07;;;;;;;0.33;76.44;103139.72;1842206;77;22549;-81
2022/01/11 02:53:46;;;;;;;52.80;31.07;;;;;;;0.35;76.40;103139.88;1842385;77;21065;-81
2022/01/11 02:56:11;;;;;;;57.88;30.00;;;;;;;0.36;76.41;103136.16;1842396;77;21140;-81
2022/01/11 02:58:38;;;;;;;55.00;29.92;;;;;;;0.38;76.34;103144.09;1843590;77;21030;-81
2022/01/11 03:01:07;;;;;;;56.92;30.25;;;;;;;0.36;76.30;103144.31;1814332;77;21600;-81
2022/01/11 03:03:37;;;;;;;52.48;28.67;;;;;;;0.35;76.31;103149.85;1847159;77;21038;-81
2022/01/11 03:06:05;;;;;;;59.73;29.92;;;;;;;0.33;76.30;103150.08;1823084;77;21050;-81
2022/01/11 03:08:43;;;;;;;56.40;28.32;;;;;;;0.35;76.42;103150.23;1856668;77;21226;-81
2022/01/11 03:11:14;;;;;;;54.23;30.15;;;;;;;0.36;76.40;103148.20;1856600;76;21206;-80
2022/01/11 03:13:40;;;;;;;57.15;27.95;;;;;;;0.36;76.35;103149.11;1855039;77;21780;-80
2022/01/11 03:16:07;;;;;;;49.00;27.77;;;;;;;0.34;76.29;103149.33;1856736;77;21032;-80
2022/01/11 03:18:37;;;;;;;53.90;29.90;;;;;;;0.31;76.26;103149.39;1856901;77;21092;-80
2022/01/11 03:21:04;;;;;;;49.42;28.40;;;;;;;0.28;76.29;103151.64;1856748;77;21046;-80
2022/01/11 03:23:33;;;;;;;43.73;26.62;;;;;;;0.26;76.29;103149.27;1822341;77;21053;-80
2022/01/11 03:26:04;;;;;;;50.45;27.22;;;;;;;0.21;76.27;103147.52;1856748;77;22456;-80
2022/01/11 03:28:28;;;;;;;44.35;25.35;;;;;;;0.14;76.22;103145.94;1853954;77;21030;-80
2022/01/11 03:30:55;;;;;;;49.25;26.20;;;;;;;0.08;76.23;103144.39;1823315;77;21057;-80
2022/01/11 03:33:25;;;;;;;49.00;27.30;;;;;;;0.01;76.23;103144.10;1856580;77;21026;-80
2022/01/11 03:35:51;;;;;;;53.33;28.07;;;;;;;-0.04;76.32;103146.57;1856954;77;21062;-80
2022/01/11 03:38:19;;;;;;;52.55;28.83;;;;;;;-0.07;76.40;103152.35;1856961;77;21854;-80
2022/01/11 03:40:48;;;;;;;43.38;27.02;;;;;;;-0.08;76.44;103157.36;1856777;77;21002;-79
2022/01/11 03:43:14;;;;;;;44.35;25.02;;;;;;;-0.10;76.47;103162.37;1856485;77;21081;-80
2022/01/11 03:45:46;;;;;;;46.68;25.25;;;;;;;-0.12;76.44;103159.09;1855510;77;21058;-81
2022/01/11 03:48:13;;;;;;;44.95;26.12;;;;;;;-0.21;76.29;103162.55;1855278;77;21104;-81
2022/01/11 03:50:39;;;;;;;46.30;25.23;;;;;;;-0.32;76.22;103159.18;1856566;77;21856;-81
2022/01/11 03:53:14;;;;;;;44.10;25.62;;;;;;;-0.43;76.28;103159.70;1856645;77;21124;-80
2022/01/11 03:55:47;;;;;;;44.75;25.10;;;;;;;-0.51;76.42;103160.12;1822058;77;21516;-81
2022/01/11 04:00:51;;;;;;;42.73;24.87;;;;;;;-0.59;76.58;103168.73;1808630;78;22739;-80
2022/01/11 04:03:22;;;;;;;42.95;23.30;;;;;;;-0.71;76.64;103155.40;1759781;79;21568;-79
2022/01/11 04:05:50;;;;;;;43.90;23.60;;;;;;;-0.78;76.66;103159.36;1760645;79;21461;-79
2022/01/11 04:08:17;;;;;;;43.10;25.30;;;;;;;-0.85;76.78;103162.92;1794446;79;21133;-79
2022/01/11 04:10:46;;;;;;;39.48;24.07;;;;;;;-0.91;76.87;103164.84;1760435;79;21029;-80
2022/01/11 04:13:15;;;;;;;41.77;23.62;;;;;;;-0.97;76.90;103161.59;1794136;79;21093;-80
2022/01/11 04:15:44;;;;;;;44.38;24.02;;;;;;;-1.06;76.87;103158.91;1760477;79;21598;-80
2022/01/11 04:18:12;;;;;;;39.33;23.80;;;;;;;-1.14;76.92;103160.12;1760296;79;21698;-80
2022/01/11 04:20:39;;;;;;;40.12;23.32;;;;;;;-1.22;76.96;103163.11;1794470;79;21066;-80
2022/01/11 04:23:09;;;;;;;40.60;23.80;;;;;;;-1.31;77.03;103157.86;1794712;79;21115;-80
2022/01/11 04:25:34;;;;;;;41.95;24.12;;;;;;;-1.37;77.10;103159.73;1794343;79;21042;-80
2022/01/11 04:28:04;;;;;;;45.67;25.15;;;;;;;-1.43;77.23;103159.06;1761573;79;21057;-81
2022/01/11 04:30:35;;;;;;;43.87;24.12;;;;;;;-1.49;77.33;103159.30;1795073;79;21709;-81
2022/01/11 04:33:03;;;;;;;40.43;23.75;;;;;;;-1.52;77.40;103161.55;1794103;79;21003;-81
2022/01/11 04:35:28;;;;;;;44.10;23.67;;;;;;;-1.57;77.52;103157.14;1793984;79;21088;-80
2022/01/11 04:37:55;;;;;;;41.77;24.57;;;;;;;-1.57;77.59;103154.56;1761550;79;21069;-81
2022/01/11 04:40:22;;;;;;;45.50;25.43;;;;;;;-1.57;77.69;103151.07;1794542;79;21137;-81
2022/01/11 04:42:52;;;;;;;40.75;23.12;;;;;;;-1.58;77.75;103150.51;1794385;79;21808;-80
2022/01/11 04:45:22;;;;;;;42.27;24.30;;;;;;;-1.59;77.74;103147.41;1794631;79;21416;-81
2022/01/11 04:47:52;;;;;;;46.92;27.02;;;;;;;-1.62;77.74;103148.34;1794048;78;21075;-81
2022/01/11 04:50:19;;;;;;;44.27;25.43;;;;;;;-1.66;77.77;103144.48;1794050;79;21102;-80
2022/01/11 04:52:44;;;;;;;41.60;23.47;;;;;;;-1.68;77.78;103154.11;1794114;78;21045;-89
2022/01/11 04:55:13;;;;;;;42.60;24.63;;;;;;;-1.74;77.76;103144.39;1761401;79;21069;-93
2022/01/11 04:57:41;;;;;;;43.28;25.12;;;;;;;-1.80;77.87;103146.81;1760877;79;21137;-93
2022/01/11 05:00:14;;;;;;;49.88;25.17;;;;;;;-1.83;77.98;103145.55;1757456;80;21119;-91
2022/01/11 05:02:42;;;;;;;40.85;23.47;;;;;;;-1.87;78.01;103150.73;1755368;80;21073;-89
2022/01/11 05:05:12;;;;;;;43.55;24.65;;;;;;;-1.92;78.09;103148.37;1767143;80;21558;-94
2022/01/11 05:07:40;;;;;;;42.55;25.57;;;;;;;-1.94;78.16;103157.61;1755972;81;21840;-93
2022/01/11 05:10:10;;;;;;;43.65;24.87;;;;;;;-1.97;78.28;103154.32;1756355;80;21069;-92
2022/01/11 05:12:41;;;;;;;39.35;23.77;;;;;;;-1.99;78.31;103154.48;1755934;81;21074;-93
2022/01/11 05:15:12;;;;;;;42.60;24.77;;;;;;;-2.02;78.31;103153.77;1755660;81;21664;-87
2022/01/11 05:17:39;;;;;;;43.60;23.65;;;;;;;-2.06;78.34;103155.47;1754744;81;21133;-89
2022/01/11 05:20:12;;;;;;;39.70;23.95;;;;;;;-2.09;78.38;103155.10;1754412;81;21089;-89
2022/01/11 05:22:39;;;;;;;41.35;23.87;;;;;;;-2.11;78.49;103162.14;1754558;80;21097;-90
2022/01/11 05:25:06;;;;;;;42.75;25.20;;;;;;;-2.13;78.54;103162.33;1754760;81;21070;-89
2022/01/11 05:27:33;;;;;;;44.23;24.55;;;;;;;-2.14;78.61;103161.39;1754619;80;21082;-79
2022/01/11 05:30:02;;;;;;;40.45;24.50;;;;;;;-2.17;78.63;103164.55;1753289;81;21545;-81
2022/01/11 05:32:29;;;;;;;46.33;25.95;;;;;;;-2.20;78.70;103170.63;1754493;81;22444;-82
2022/01/11 05:35:03;;;;;;;42.48;24.63;;;;;;;-2.21;78.73;103174.36;1723096;81;21049;-87
2022/01/11 05:37:30;;;;;;;41.63;24.63;;;;;;;-2.23;78.83;103177.13;1754431;81;21083;-81
2022/01/11 05:40:02;;;;;;;44.80;25.35;;;;;;;-2.23;78.97;103178.05;1753905;81;21665;-81
2022/01/11 05:42:27;;;;;;;48.55;26.85;;;;;;;-2.20;79.12;103178.75;1755175;81;21589;-92
2022/01/11 05:45:00;;;;;;;43.58;26.27;;;;;;;-2.11;79.36;103176.33;1755266;81;21992;-89
2022/01/11 05:47:28;;;;;;;40.63;24.10;;;;;;;-2.02;79.46;103186.42;1724034;81;21091;-81
2022/01/11 05:49:55;;;;;;;44.63;25.48;;;;;;;-2.02;79.59;103161.52;1753977;81;21787;-81
2022/01/11 05:52:22;;;;;;;49.90;26.45;;;;;;;-1.80;79.64;103179.09;1753692;81;21640;-81
2022/01/11 05:54:52;;;;;;;42.40;24.72;;;;;;;-1.67;79.68;103174.00;1753820;81;21422;-82
2022/01/11 05:57:17;;;;;;;44.90;26.15;;;;;;;-1.57;79.64;103181.68;1753420;81;21798;-82
2022/01/11 05:59:48;;;;;;;52.70;27.55;;;;;;;-1.52;79.38;103184.80;1754035;81;21050;-81
2022/01/11 06:02:15;;;;;;;45.58;25.72;;;;;;;-1.54;79.20;103175.02;1755614;81;21152;-81
2022/01/11 06:04:42;;;;;;;42.10;24.80;;;;;;;-1.54;79.21;103188.84;1755470;80;21082;-91
2022/01/11 06:07:09;;;;;;;44.63;25.60;;;;;;;-1.51;79.27;103196.04;1757010;80;21055;-91
2022/01/11 06:09:35;;;;;;;45.88;26.50;;;;;;;-1.47;79.30;103195.25;1757405;81;21755;-90
2022/01/11 06:12:06;;;;;;;47.67;28.38;;;;;;;-1.42;79.28;103193.20;1757469;81;21035;-90
2022/01/11 06:14:35;;;;;;;45.28;26.77;;;;;;;-1.41;79.27;103195.97;1756799;80;21023;-90
2022/01/11 06:17:02;;;;;;;42.62;26.80;;;;;;;-1.34;79.30;103197.94;1757362;81;21380;-91
2022/01/11 06:19:31;;;;;;;48.15;27.60;;;;;;;-1.27;79.34;103203.05;1757386;81;21055;-91
2022/01/11 06:22:00;;;;;;;44.63;24.52;;;;;;;-1.21;79.34;103203.34;1757610;81;21767;-91
2022/01/11 06:24:26;;;;;;;48.23;27.20;;;;;;;-1.14;79.37;103209.22;1756903;81;21043;-91
2022/01/11 06:26:55;;;;;;;47.83;27.48;;;;;;;-1.13;79.34;103210.66;1762471;81;21050;-90
2022/01/11 06:29:22;;;;;;;40.85;24.75;;;;;;;-1.04;79.33;103209.48;1757315;80;21040;-90
2022/01/11 06:31:51;;;;;;;49.18;25.57;;;;;;;-0.97;79.36;103215.88;1764396;78;21087;-89
2022/01/11 06:34:22;;;;;;;42.30;25.17;;;;;;;-0.92;79.35;103221.20;1756926;81;21680;-90
2022/01/11 06:36:48;;;;;;;50.10;28.10;;;;;;;-0.86;79.33;103223.16;1755336;81;21107;-89
2022/01/11 06:39:17;;;;;;;49.80;28.23;;;;;;;-0.80;79.31;103234.56;1756663;81;21107;-90
2022/01/11 06:41:44;;;;;;;43.38;26.33;;;;;;;-0.76;79.26;103236.73;1756611;81;21110;-89
2022/01/11 06:44:11;;;;;;;51.13;27.82;;;;;;;-0.72;79.21;103237.98;1756779;81;21071;-90
2022/01/11 06:46:41;;;;;;;51.80;28.65;;;;;;;-0.67;79.19;103242.02;1725870;81;21096;-89
2022/01/11 06:49:11;;;;;;;50.33;28.87;;;;;;;-0.63;79.12;103239.91;1756925;81;21064;-89
2022/01/11 06:51:38;;;;;;;48.90;26.87;;;;;;;-0.59;79.07;103247.64;1726369;81;21581;-90
2022/01/11 06:54:05;;;;;;;47.43;27.85;;;;;;;-0.55;79.02;103252.78;1757015;81;21087;-89
2022/01/11 06:56:32;;;;;;;53.63;27.95;;;;;;;-0.53;78.96;103249.98;1756818;81;21597;-89
2022/01/11 06:58:59;;;;;;;45.78;27.42;;;;;;;-0.52;78.94;103255.72;1757018;81;21809;-89
2022/01/11 07:01:25;;;;;;;46.75;25.77;;;;;;;-0.49;78.90;103257.33;1747337;80;21076;-89
2022/01/11 07:03:55;;;;;;;46.08;27.10;;;;;;;-0.46;78.92;103265.44;1745858;82;21637;-89
2022/01/11 07:06:22;;;;;;;45.52;27.27;;;;;;;-0.44;78.89;103260.96;1745659;82;21103;-89
2022/01/11 07:08:48;;;;;;;45.00;26.05;;;;;;;-0.43;78.88;103262.81;1745976;82;21047;-89
2022/01/11 07:11:15;;;;;;;48.05;27.02;;;;;;;-0.40;78.90;103260.53;1745903;82;22611;-89
2022/01/11 07:13:43;;;;;;;49.33;28.20;;;;;;;-0.35;78.89;103267.53;1745015;82;21582;-89
2022/01/11 07:16:13;;;;;;;49.63;29.23;;;;;;;-0.33;78.91;103272.49;1745719;81;21040;-89
2022/01/11 07:18:39;;;;;;;54.48;28.98;;;;;;;-0.27;78.94;103276.12;1745227;80;21091;-90
2022/01/11 07:21:09;;;;;;;54.38;30.75;;;;;;;-0.28;78.79;103272.62;1745936;82;21075;-89
2022/01/11 07:23:34;;;;;;;52.50;30.20;;;;;;;-0.28;78.70;103276.86;1745130;80;22876;-89
2022/01/11 07:26:00;;;;;;;49.88;27.58;;;;;;;-0.28;78.74;103278.16;1745760;82;21343;-89
2022/01/11 07:28:29;;;;;;;51.28;28.30;;;;;;;-0.29;78.65;103281.13;1745776;82;22284;-90
2022/01/11 07:30:55;;;;;;;45.78;27.13;;;;;;;-0.28;78.68;103284.63;1746008;82;21571;-90
2022/01/11 07:33:22;;;;;;;48.05;27.27;;;;;;;-0.27;78.69;103284.80;1745936;82;21084;-89
2022/01/11 07:35:49;;;;;;;49.63;28.75;;;;;;;-0.25;78.77;103282.39;1745972;81;22498;-88
2022/01/11 07:38:17;;;;;;;47.75;27.25;;;;;;;-0.21;78.82;103288.08;1716097;82;21052;-88
2022/01/11 07:40:44;;;;;;;51.45;28.32;;;;;;;-0.18;78.87;103290.08;1746084;82;21089;-88
2022/01/11 07:43:13;;;;;;;51.70;28.73;;;;;;;-0.15;78.81;103295.95;1745881;82;21373;-89
2022/01/11 07:45:40;;;;;;;49.98;27.98;;;;;;;-0.14;78.84;103292.62;1746209;82;21560;-89
2022/01/11 07:48:07;;;;;;;49.90;28.73;;;;;;;-0.10;78.86;103295.70;1746148;82;22610;-89
2022/01/11 07:50:34;;;;;;;55.25;28.75;;;;;;;-0.06;78.84;103298.25;1745914;82;21091;-89
2022/01/11 07:53:05;;;;;;;49.83;28.83;;;;;;;-0.04;78.86;103305.80;1716224;82;21072;-89
2022/01/11 07:55:31;;;;;;;54.42;29.70;;;;;;;-0.03;78.83;103302.48;1745884;82;21080;-89
2022/01/11 07:57:57;;;;;;;59.38;30.17;;;;;;;0.04;78.98;103304.05;1746094;81;21067;-89
2022/01/11 08:00:24;;;;;;;48.65;28.60;;;;;;;0.09;78.90;103309.35;1745746;80;22586;-89
2022/01/11 08:02:51;;;;;;;52.43;29.27;;;;;;;0.13;78.89;103311.52;1745595;82;21036;-89
2022/01/11 08:05:21;;;;;;;49.88;29.70;;;;;;;0.15;78.92;103308.71;1745875;82;21040;-90
2022/01/11 08:07:46;;;;;;;54.45;31.52;;;;;;;0.22;78.96;103315.10;1745270;81;21079;-89
2022/01/11 08:10:17;;;;;;;55.40;30.02;;;;;;;0.26;78.93;103315.06;1746022;82;22402;-89
2022/01/11 08:12:41;;;;;;;54.23;29.55;;;;;;;0.30;78.96;103315.92;1745520;82;21799;-89
2022/01/11 08:15:10;;;;;;;53.20;29.60;;;;;;;0.37;79.09;103323.22;1745960;82;21573;-88
2022/01/11 08:17:37;;;;;;;52.53;30.75;;;;;;;0.43;79.03;103317.78;1745923;82;21056;-89
2022/01/11 08:20:04;;;;;;;54.25;31.35;;;;;;;0.46;79.02;103327.58;1745831;82;21657;-89
2022/01/11 08:22:35;;;;;;;56.33;31.93;;;;;;;0.50;79.02;103330.64;1745806;82;21624;-90
2022/01/11 08:25:01;;;;;;;55.58;30.48;;;;;;;0.53;79.00;103332.67;1716548;82;21772;-89
2022/01/11 08:27:28;;;;;;;56.60;32.67;;;;;;;0.58;79.09;103338.88;1745678;82;21045;-90
2022/01/11 08:29:55;;;;;;;50.33;31.05;;;;;;;0.63;79.10;103333.27;1745970;82;21071;-90
2022/01/11 08:32:21;;;;;;;60.48;34.92;;;;;;;0.67;79.13;103340.61;1745702;82;21068;-89
2022/01/11 08:34:48;;;;;;;62.17;35.33;;;;;;;0.70;79.19;103351.31;1745829;81;21081;-90
2022/01/11 08:37:15;;;;;;;68.30;37.60;;;;;;;0.74;79.30;103347.90;1745874;81;21408;-89
2022/01/11 08:39:43;;;;;;;67.32;38.17;;;;;;;0.74;79.29;103352.17;1745843;81;21099;-90
2022/01/11 08:42:14;;;;;;;70.65;38.98;;;;;;;0.78;79.43;103351.73;1745643;82;21146;-89
2022/01/11 08:44:46;;;;;;;72.22;40.50;;;;;;;0.81;79.47;103350.78;1743810;82;21080;-89
2022/01/11 08:47:13;;;;;;;77.67;42.17;;;;;;;0.85;79.47;103350.34;1741163;81;21185;-89
2022/01/11 08:49:40;;;;;;;71.47;39.18;;;;;;;0.91;79.44;103353.97;1745906;82;22609;-89
2022/01/11 08:52:07;;;;;;;72.00;42.40;;;;;;;0.93;79.48;103357.63;1745794;82;21052;-89
2022/01/11 08:54:34;;;;;;;76.02;42.67;;;;;;;0.97;79.40;103358.11;1745925;82;22198;-89
2022/01/11 08:57:01;;;;;;;76.37;41.02;;;;;;;0.95;79.25;103360.01;1746057;82;21110;-88
2022/01/11 08:59:31;;;;;;;76.20;41.40;;;;;;;0.98;79.43;103360.34;1745701;82;21048;-89
2022/01/11 09:01:58;;;;;;;74.50;41.50;;;;;;;1.04;79.45;103366.17;1752550;80;21800;-89
2022/01/11 09:04:26;;;;;;;72.78;40.90;;;;;;;1.10;79.43;103377.57;1720196;81;21047;-89
2022/01/11 09:06:58;;;;;;;74.80;44.60;;;;;;;1.13;79.32;103375.31;1755599;81;21852;-89
2022/01/11 09:09:28;;;;;;;75.12;42.53;;;;;;;1.14;79.37;103372.84;1755386;81;21037;-89
2022/01/11 09:11:55;;;;;;;69.85;42.23;;;;;;;1.21;79.39;103371.83;1755749;81;21139;-89
2022/01/11 09:14:21;;;;;;;75.25;42.05;;;;;;;1.24;79.28;103369.57;1755763;81;21744;-89
2022/01/11 09:16:48;;;;;;;74.45;44.33;;;;;;;1.26;79.27;103365.81;1755518;81;21031;-89
2022/01/11 09:19:15;;;;;;;75.42;42.50;;;;;;;1.29;79.24;103370.04;1755533;81;21297;-89
2022/01/11 09:21:42;;;;;;;71.77;41.63;;;;;;;1.33;79.24;103378.33;1755304;81;21027;-88
2022/01/11 09:24:10;;;;;;;76.28;43.50;;;;;;;1.35;79.13;103374.20;1755609;81;21071;-89
2022/01/11 09:26:37;;;;;;;75.50;42.98;;;;;;;1.36;79.10;103366.94;1755446;81;21777;-89
2022/01/11 09:29:04;;;;;;;80.32;46.02;;;;;;;1.43;79.17;103372.80;1755403;81;21606;-89
2022/01/11 09:31:30;;;;;;;76.77;43.08;;;;;;;1.46;79.13;103374.00;1755399;81;21071;-89
2022/01/11 09:33:57;;;;;;;82.78;46.05;;;;;;;1.50;79.05;103381.73;1755481;81;21645;-89
2022/01/11 09:36:24;;;;;;;78.47;44.23;;;;;;;1.55;79.02;103377.94;1755421;81;21095;-89
2022/01/11 09:38:51;;;;;;;76.02;43.63;;;;;;;1.56;78.97;103364.22;1755530;81;21781;-90
2022/01/11 09:41:17;;;;;;;73.87;42.78;;;;;;;1.61;79.10;103360.39;1755507;81;21076;-89
2022/01/11 09:43:44;;;;;;;81.35;45.30;;;;;;;1.69;79.06;103361.18;1755485;81;21114;-89
2022/01/11 09:46:12;;;;;;;79.55;46.95;;;;;;;1.77;79.01;103359.40;1755731;81;21035;-89
2022/01/11 09:48:38;;;;;;;83.35;48.23;;;;;;;1.81;78.87;103352.06;1755532;81;21056;-89
2022/01/11 09:51:10;;;;;;;90.87;49.55;;;;;;;1.85;78.82;103350.31;1716304;81;22130;-89
2022/01/11 09:53:35;;;;;;;94.67;52.17;;;;;;;1.89;78.78;103343.36;1754461;81;21570;-89
2022/01/11 09:56:06;;;;;;;93.37;51.30;;;;;;;1.92;78.73;103338.49;1755550;81;21060;-89
2022/01/11 09:58:33;;;;;;;95.67;58.60;;;;;;;1.98;78.69;103345.98;1755416;81;21064;-89
2022/01/11 10:01:00;;;;;;;91.12;50.80;;;;;;;2.02;78.56;103344.23;1758834;80;21094;-89
2022/01/11 10:03:27;;;;;;;97.72;52.40;;;;;;;2.07;78.62;103332.63;1768832;81;22092;-88
2022/01/11 10:05:55;;;;;;;104.23;57.45;;;;;;;2.17;78.56;103340.05;1738045;81;21063;-89
2022/01/11 10:08:28;;;;;;;100.60;56.48;;;;;;;2.22;78.42;103346.64;1769631;81;21674;-89
2022/01/11 10:10:57;;;;;;;104.78;56.63;;;;;;;2.29;78.34;103346.47;1769571;81;21530;-89
2022/01/11 10:13:34;;;;;;;92.92;52.05;;;;;;;2.33;78.22;103338.23;1769399;81;21084;-90
2022/01/11 10:16:25;;;;;;;93.42;53.60;;;;;;;2.41;78.17;103337.31;1769457;81;21770;-89
2022/01/11 10:18:53;;;;;;;96.08;58.42;;;;;;;2.45;77.97;103335.55;1769504;81;21067;-89
2022/01/11 10:21:42;;;;;;;85.45;50.92;;;;;;;2.50;77.93;103335.63;1769286;81;21094;-89
2022/01/11 10:24:32;;;;;;;78.60;46.40;;;;;;;2.57;77.92;103333.23;1738393;81;21668;-89
2022/01/11 10:26:56;;;;;;;80.20;47.38;;;;;;;2.65;77.85;103332.72;1768794;81;21098;-88
2022/01/11 10:29:37;;;;;;;81.12;47.50;;;;;;;2.73;77.77;103333.08;1769142;81;21780;-88
2022/01/11 10:32:21;;;;;;;79.37;48.70;;;;;;;2.78;77.72;103331.84;1768714;81;21098;-88
2022/01/11 10:34:51;;;;;;;80.32;47.93;;;;;;;2.82;77.59;103328.78;1769208;81;21055;-88
2022/01/11 10:37:39;;;;;;;85.03;48.55;;;;;;;2.82;77.44;103330.08;1769231;81;21099;-88
2022/01/11 10:40:19;;;;;;;82.40;46.37;;;;;;;2.78;77.27;103329.25;1769401;81;21126;-88
2022/01/11 10:42:58;;;;;;;76.35;43.95;;;;;;;2.68;77.13;103344.34;1769437;81;21784;-88
2022/01/11 10:45:36;;;;;;;82.57;47.25;;;;;;;2.58;77.13;103348.08;1769432;80;21054;-88
2022/01/11 10:48:04;;;;;;;78.62;45.75;;;;;;;2.49;77.18;103341.97;1768052;81;21047;-88
2022/01/11 10:50:36;;;;;;;83.12;45.85;;;;;;;2.51;77.41;103341.34;1768407;81;21638;-88
2022/01/11 10:53:20;;;;;;;78.92;46.68;;;;;;;2.52;77.44;103334.48;1769305;81;21740;-88
2022/01/11 10:55:54;;;;;;;83.95;47.35;;;;;;;2.56;77.54;103338.31;1769494;81;21779;-88
2022/01/11 10:58:22;;;;;;;84.52;49.55;;;;;;;2.60;77.56;103336.53;1769014;81;21047;-88
2022/01/11 11:00:53;;;;;;;78.37;44.27;;;;;;;2.65;77.58;103327.52;1767905;80;21039;-88
2022/01/11 11:03:27;;;;;;;81.75;45.95;;;;;;;2.72;77.55;103320.47;1755151;81;21072;-86
2022/01/11 11:06:07;;;;;;;80.32;52.13;;;;;;;2.77;77.53;103323.89;1755085;81;21072;-88
2022/01/11 11:08:35;;;;;;;79.53;46.33;;;;;;;2.79;77.36;103323.27;1755011;80;21856;-88
2022/01/11 11:11:07;;;;;;;82.67;47.38;;;;;;;2.83;77.37;103325.39;1755487;81;21605;-88
2022/01/11 11:13:36;;;;;;;83.40;47.33;;;;;;;2.85;77.24;103330.39;1755651;81;21095;-88
2022/01/11 11:16:20;;;;;;;80.90;48.73;;;;;;;2.88;77.28;103331.97;1755554;81;21052;-88
2022/01/11 11:18:57;;;;;;;85.53;49.48;;;;;;;2.90;77.17;103328.22;1755933;81;21625;-87
2022/01/11 11:21:32;;;;;;;79.47;48.10;;;;;;;2.95;77.16;103335.16;1755705;81;21828;-88
2022/01/11 11:24:10;;;;;;;83.07;48.58;;;;;;;2.99;77.18;103330.42;1755667;81;21060;-88
2022/01/11 11:26:40;;;;;;;87.22;50.55;;;;;;;3.08;77.13;103331.31;1754930;80;21111;-88